VLO6025 SBSP-SBJP
Flight info
| Callsign | VLO6025 |
|---|---|
| Flight time | 2h 45m |
| Altitude | FL370 |
| Route | BAIA2B NUXEL UZ23 ANBEX |
| Aircraft | B703/H-VRDW/C |
Departure
| Time | 2026-05-08 22:38 |
|---|---|
| Airport | Congonhas–Deputado Freitas Nobre Airport (SBSP) |
Arrival
| Time | 2026-05-09 01:23 |
|---|---|
| Airport | Presidente Castro Pinto International Airport (SBJP) |
| Time | Latitude | Longitude | Altitude | Speed | Heading |
|---|---|---|---|---|---|
| 2026-05-08 22:19 | -23.62950 | -46.65853 | 2627 ft | 0 kts | 328° |
| 2026-05-08 22:23 | -23.62953 | -46.65851 | 2627 ft | 2 kts | 328° |
| 2026-05-08 22:24 | -23.62988 | -46.65851 | 2627 ft | 8 kts | 46° |
| 2026-05-08 22:24 | -23.62997 | -46.65862 | 2627 ft | 0 kts | 48° |
| 2026-05-08 22:28 | -23.62991 | -46.65851 | 2627 ft | 7 kts | 63° |
| 2026-05-08 22:28 | -23.62950 | -46.65758 | 2630 ft | 18 kts | 69° |
| 2026-05-08 22:28 | -23.62930 | -46.65627 | 2634 ft | 18 kts | 101° |
| 2026-05-08 22:28 | -23.63016 | -46.65545 | 2636 ft | 18 kts | 158° |
| 2026-05-08 22:29 | -23.63127 | -46.65475 | 2638 ft | 19 kts | 148° |
| 2026-05-08 22:29 | -23.63236 | -46.65401 | 2638 ft | 18 kts | 148° |
| 2026-05-08 22:29 | -23.63346 | -46.65326 | 2637 ft | 19 kts | 147° |
| 2026-05-08 22:29 | -23.63452 | -46.65252 | 2634 ft | 16 kts | 148° |
| 2026-05-08 22:30 | -23.63472 | -46.65239 | 2633 ft | 0 kts | 148° |
| 2026-05-08 22:35 | -23.63487 | -46.65229 | 2632 ft | 9 kts | 147° |
| 2026-05-08 22:36 | -23.63500 | -46.65159 | 2630 ft | 0 kts | 64° |
| 2026-05-08 22:36 | -23.63497 | -46.65152 | 2630 ft | 4 kts | 62° |
| 2026-05-08 22:36 | -23.63448 | -46.65116 | 2632 ft | 13 kts | 352° |
| 2026-05-08 22:37 | -23.63309 | -46.65206 | 2639 ft | 48 kts | 328° |
| 2026-05-08 22:37 | -23.62811 | -46.65552 | 2634 ft | 122 kts | 328° |
| 2026-05-08 22:37 | -23.61895 | -46.66187 | 2654 ft | 184 kts | 327° |
| 2026-05-08 22:37 | -23.60709 | -46.66772 | 3047 ft | 190 kts | 355° |
| 2026-05-08 22:38 | -23.59432 | -46.66471 | 3537 ft | 192 kts | 33° |
| 2026-05-08 22:38 | -23.58590 | -46.65363 | 4037 ft | 196 kts | 70° |
| 2026-05-08 22:38 | -23.58538 | -46.63871 | 4544 ft | 202 kts | 107° |
| 2026-05-08 22:38 | -23.59155 | -46.62498 | 5047 ft | 204 kts | 119° |
| 2026-05-08 22:39 | -23.59894 | -46.61177 | 5546 ft | 206 kts | 118° |
| 2026-05-08 22:39 | -23.60388 | -46.59722 | 6047 ft | 206 kts | 103° |
| 2026-05-08 22:39 | -23.60738 | -46.58209 | 6548 ft | 207 kts | 102° |
| 2026-05-08 22:39 | -23.61081 | -46.56690 | 7047 ft | 208 kts | 102° |
| 2026-05-08 22:40 | -23.61670 | -46.55261 | 7545 ft | 212 kts | 129° |
| 2026-05-08 22:40 | -23.62705 | -46.54086 | 8052 ft | 216 kts | 134° |
| 2026-05-08 22:40 | -23.63813 | -46.52916 | 8492 ft | 232 kts | 135° |
| 2026-05-08 22:40 | -23.65033 | -46.51634 | 8772 ft | 255 kts | 135° |
| 2026-05-08 22:41 | -23.66366 | -46.50233 | 9044 ft | 278 kts | 135° |
| 2026-05-08 22:41 | -23.67800 | -46.48728 | 9413 ft | 291 kts | 135° |
| 2026-05-08 22:41 | -23.69267 | -46.47191 | 9914 ft | 295 kts | 135° |
| 2026-05-08 22:41 | -23.70524 | -46.45449 | 10408 ft | 295 kts | 114° |
| 2026-05-08 22:42 | -23.70993 | -46.43272 | 10914 ft | 300 kts | 88° |
| 2026-05-08 22:42 | -23.70799 | -46.40982 | 11517 ft | 308 kts | 81° |
| 2026-05-08 22:42 | -23.70485 | -46.38652 | 12147 ft | 316 kts | 80° |
| 2026-05-08 22:42 | -23.70151 | -46.36261 | 12778 ft | 324 kts | 80° |
| 2026-05-08 22:43 | -23.69806 | -46.33807 | 13409 ft | 332 kts | 80° |
| 2026-05-08 22:43 | -23.69454 | -46.31300 | 14038 ft | 340 kts | 80° |
| 2026-05-08 22:43 | -23.69094 | -46.28731 | 14668 ft | 348 kts | 80° |
| 2026-05-08 22:43 | -23.68724 | -46.26088 | 15302 ft | 355 kts | 80° |
| 2026-05-08 22:44 | -23.68348 | -46.23407 | 15931 ft | 362 kts | 80° |
| 2026-05-08 22:44 | -23.67967 | -46.20681 | 16558 ft | 369 kts | 80° |
| 2026-05-08 22:44 | -23.67578 | -46.17902 | 17186 ft | 375 kts | 79° |
| 2026-05-08 22:44 | -23.66769 | -46.15209 | 17807 ft | 377 kts | 61° |
| 2026-05-08 22:45 | -23.65184 | -46.12946 | 18431 ft | 380 kts | 42° |
| 2026-05-08 22:45 | -23.63046 | -46.11257 | 19061 ft | 382 kts | 31° |
| 2026-05-08 22:45 | -23.60728 | -46.09776 | 19691 ft | 386 kts | 29° |
| 2026-05-08 22:45 | -23.58386 | -46.08339 | 20315 ft | 389 kts | 29° |
| 2026-05-08 22:46 | -23.56017 | -46.06899 | 20940 ft | 391 kts | 28° |
| 2026-05-08 22:46 | -23.53616 | -46.05499 | 21564 ft | 392 kts | 27° |
| 2026-05-08 22:46 | -23.51159 | -46.04119 | 21781 ft | 407 kts | 27° |
| 2026-05-08 22:46 | -23.48566 | -46.02675 | 21827 ft | 432 kts | 27° |
| 2026-05-08 22:47 | -23.45810 | -46.01175 | 21865 ft | 455 kts | 23° |
| 2026-05-08 22:47 | -23.42705 | -46.00157 | 21903 ft | 475 kts | 10° |
| 2026-05-08 22:47 | -23.39358 | -45.99745 | 21949 ft | 492 kts | 4° |
| 2026-05-08 22:47 | -23.35880 | -45.99517 | 22015 ft | 508 kts | 3° |
| 2026-05-08 22:48 | -23.32345 | -45.99335 | 22599 ft | 509 kts | 2° |
| 2026-05-08 22:48 | -23.28822 | -45.99169 | 23445 ft | 506 kts | 2° |
| 2026-05-08 22:48 | -23.25314 | -45.99033 | 24182 ft | 504 kts | 2° |
| 2026-05-08 22:48 | -23.21809 | -45.98908 | 24844 ft | 503 kts | 2° |
| 2026-05-08 22:49 | -23.18294 | -45.98785 | 25470 ft | 502 kts | 2° |
| 2026-05-08 22:49 | -23.11332 | -45.98542 | 26570 ft | 500 kts | 2° |
| 2026-05-08 22:49 | -23.07865 | -45.98420 | 27051 ft | 499 kts | 2° |
| 2026-05-08 22:50 | -23.04401 | -45.98298 | 27491 ft | 498 kts | 2° |
| 2026-05-08 22:50 | -23.00944 | -45.98176 | 27892 ft | 497 kts | 2° |
| 2026-05-08 22:50 | -22.97489 | -45.98053 | 28259 ft | 497 kts | 2° |
| 2026-05-08 22:50 | -22.94019 | -45.97930 | 28595 ft | 496 kts | 2° |
| 2026-05-08 22:51 | -22.90577 | -45.97774 | 28893 ft | 495 kts | 5° |
| 2026-05-08 22:51 | -22.87172 | -45.97192 | 29143 ft | 495 kts | 11° |
| 2026-05-08 22:51 | -22.83819 | -45.96394 | 29392 ft | 495 kts | 13° |
| 2026-05-08 22:51 | -22.80475 | -45.95551 | 29625 ft | 494 kts | 13° |
| 2026-05-08 22:52 | -22.77125 | -45.94695 | 29840 ft | 494 kts | 13° |
| 2026-05-08 22:52 | -22.73792 | -45.93843 | 30035 ft | 493 kts | 13° |
| 2026-05-08 22:52 | -22.70436 | -45.92984 | 30263 ft | 492 kts | 13° |
| 2026-05-08 22:52 | -22.67118 | -45.92134 | 30499 ft | 491 kts | 13° |
| 2026-05-08 22:53 | -22.63798 | -45.91285 | 30684 ft | 490 kts | 13° |
| 2026-05-08 22:53 | -22.60484 | -45.90437 | 30870 ft | 490 kts | 13° |
| 2026-05-08 22:53 | -22.57170 | -45.89589 | 31058 ft | 490 kts | 13° |
| 2026-05-08 22:53 | -22.53865 | -45.88743 | 31244 ft | 489 kts | 13° |
| 2026-05-08 22:54 | -22.50552 | -45.87896 | 31429 ft | 489 kts | 13° |
| 2026-05-08 22:54 | -22.47226 | -45.87045 | 31622 ft | 488 kts | 13° |
| 2026-05-08 22:54 | -22.43965 | -45.86210 | 32244 ft | 476 kts | 13° |
| 2026-05-08 22:54 | -22.40784 | -45.85396 | 32990 ft | 464 kts | 13° |
| 2026-05-08 22:55 | -22.37695 | -45.84605 | 33844 ft | 450 kts | 13° |
| 2026-05-08 22:55 | -22.34700 | -45.83837 | 34700 ft | 436 kts | 13° |
| 2026-05-08 22:55 | -22.31800 | -45.83092 | 35554 ft | 422 kts | 14° |
| 2026-05-08 22:55 | -22.29115 | -45.81995 | 36402 ft | 407 kts | 29° |
| 2026-05-08 22:56 | -22.26789 | -45.80331 | 37261 ft | 393 kts | 36° |
| 2026-05-08 22:56 | -22.24670 | -45.78575 | 38106 ft | 378 kts | 38° |
| 2026-05-08 22:56 | -22.22615 | -45.76825 | 38502 ft | 379 kts | 38° |
| 2026-05-08 22:56 | -22.20536 | -45.75045 | 38559 ft | 387 kts | 38° |
| 2026-05-08 22:57 | -22.16241 | -45.71364 | 38566 ft | 403 kts | 38° |
| 2026-05-08 22:57 | -22.11769 | -45.67534 | 38565 ft | 417 kts | 38° |
| 2026-05-08 22:58 | -22.07176 | -45.63602 | 38566 ft | 429 kts | 38° |
| 2026-05-08 22:58 | -22.02451 | -45.59559 | 38566 ft | 440 kts | 38° |
| 2026-05-08 22:59 | -21.97622 | -45.55431 | 38567 ft | 449 kts | 38° |
| 2026-05-08 22:59 | -21.92690 | -45.51218 | 38568 ft | 457 kts | 38° |
| 2026-05-08 23:00 | -21.87660 | -45.46924 | 38570 ft | 465 kts | 38° |
| 2026-05-08 23:00 | -21.82579 | -45.42589 | 38571 ft | 470 kts | 38° |
| 2026-05-08 23:01 | -21.77425 | -45.38195 | 38570 ft | 474 kts | 38° |
| 2026-05-08 23:01 | -21.72239 | -45.33778 | 38457 ft | 480 kts | 38° |
| 2026-05-08 23:02 | -21.67009 | -45.29325 | 38448 ft | 481 kts | 38° |
| 2026-05-08 23:02 | -21.61769 | -45.24867 | 38449 ft | 483 kts | 38° |
| 2026-05-08 23:03 | -21.56494 | -45.20382 | 38450 ft | 483 kts | 38° |
| 2026-05-08 23:03 | -21.51227 | -45.15907 | 38376 ft | 486 kts | 38° |
| 2026-05-08 23:04 | -21.45942 | -45.11417 | 38368 ft | 486 kts | 38° |
| 2026-05-08 23:04 | -21.43305 | -45.09178 | 38469 ft | 484 kts | 38° |
| 2026-05-08 23:04 | -21.40653 | -45.06927 | 38532 ft | 483 kts | 38° |
| 2026-05-08 23:05 | -21.35394 | -45.02464 | 38549 ft | 484 kts | 38° |
| 2026-05-08 23:05 | -21.30131 | -44.97998 | 38558 ft | 485 kts | 38° |
| 2026-05-08 23:06 | -21.24854 | -44.93519 | 38567 ft | 485 kts | 38° |
| 2026-05-08 23:06 | -21.19690 | -44.89132 | 38576 ft | 486 kts | 38° |
| 2026-05-08 23:07 | -21.14262 | -44.84532 | 38532 ft | 487 kts | 38° |
| 2026-05-08 23:07 | -21.09453 | -44.80456 | 38542 ft | 487 kts | 38° |
| 2026-05-08 23:08 | -21.03714 | -44.75772 | 38554 ft | 487 kts | 36° |
| 2026-05-08 23:08 | -20.98230 | -44.71555 | 38564 ft | 487 kts | 35° |
| 2026-05-08 23:09 | -20.92739 | -44.67355 | 38671 ft | 485 kts | 35° |
| 2026-05-08 23:09 | -20.90009 | -44.65268 | 38793 ft | 483 kts | 35° |
| 2026-05-08 23:09 | -20.87288 | -44.63187 | 38886 ft | 482 kts | 35° |
| 2026-05-08 23:10 | -20.81822 | -44.59004 | 38904 ft | 484 kts | 35° |
| 2026-05-08 23:10 | -20.76347 | -44.54829 | 38904 ft | 485 kts | 35° |
| 2026-05-08 23:11 | -20.70855 | -44.50652 | 38904 ft | 486 kts | 35° |
| 2026-05-08 23:11 | -20.65335 | -44.46455 | 38904 ft | 487 kts | 35° |
| 2026-05-08 23:12 | -20.59822 | -44.42266 | 38904 ft | 488 kts | 35° |
| 2026-05-08 23:12 | -20.54307 | -44.38075 | 38904 ft | 488 kts | 35° |
| 2026-05-08 23:13 | -20.48792 | -44.33881 | 38904 ft | 488 kts | 35° |
| 2026-05-08 23:13 | -20.43283 | -44.29637 | 38904 ft | 488 kts | 36° |
| 2026-05-08 23:14 | -20.37836 | -44.25337 | 38904 ft | 489 kts | 36° |
| 2026-05-08 23:14 | -20.32393 | -44.21030 | 38904 ft | 489 kts | 36° |
| 2026-05-08 23:15 | -20.26923 | -44.16703 | 38904 ft | 489 kts | 36° |
| 2026-05-08 23:15 | -20.21476 | -44.12394 | 38904 ft | 489 kts | 36° |
| 2026-05-08 23:16 | -20.16039 | -44.08093 | 38904 ft | 489 kts | 36° |
| 2026-05-08 23:16 | -20.10593 | -44.03780 | 38904 ft | 489 kts | 36° |
| 2026-05-08 23:17 | -20.05118 | -43.99468 | 38904 ft | 489 kts | 36° |
| 2026-05-08 23:17 | -19.99668 | -43.95182 | 38904 ft | 489 kts | 36° |
| 2026-05-08 23:18 | -19.94212 | -43.90892 | 38904 ft | 489 kts | 36° |
| 2026-05-08 23:18 | -19.88737 | -43.86583 | 38852 ft | 490 kts | 36° |
| 2026-05-08 23:19 | -19.85977 | -43.84471 | 38730 ft | 492 kts | 34° |
| 2026-05-08 23:19 | -19.83163 | -43.82402 | 38623 ft | 494 kts | 34° |
| 2026-05-08 23:19 | -19.77515 | -43.78303 | 38609 ft | 492 kts | 34° |
| 2026-05-08 23:20 | -19.71876 | -43.74221 | 38591 ft | 491 kts | 34° |
| 2026-05-08 23:20 | -19.66228 | -43.70135 | 38599 ft | 490 kts | 34° |
| 2026-05-08 23:21 | -19.60609 | -43.66072 | 38608 ft | 489 kts | 34° |
| 2026-05-08 23:21 | -19.54994 | -43.62014 | 38615 ft | 489 kts | 34° |
| 2026-05-08 23:22 | -19.49372 | -43.57952 | 38622 ft | 489 kts | 34° |
| 2026-05-08 23:22 | -19.43772 | -43.53906 | 38628 ft | 489 kts | 34° |
| 2026-05-08 23:23 | -19.38169 | -43.49856 | 38633 ft | 488 kts | 34° |
| 2026-05-08 23:23 | -19.32584 | -43.45795 | 38638 ft | 488 kts | 35° |
| 2026-05-08 23:24 | -19.27103 | -43.41522 | 38643 ft | 489 kts | 36° |
| 2026-05-08 23:24 | -19.21675 | -43.37227 | 38647 ft | 489 kts | 36° |
| 2026-05-08 23:25 | -19.16244 | -43.32927 | 38651 ft | 489 kts | 36° |
| 2026-05-08 23:25 | -19.10797 | -43.28617 | 38654 ft | 489 kts | 36° |
| 2026-05-08 23:26 | -19.05355 | -43.24311 | 38557 ft | 491 kts | 36° |
| 2026-05-08 23:26 | -18.99910 | -43.20007 | 38553 ft | 490 kts | 36° |
| 2026-05-08 23:27 | -18.94465 | -43.15702 | 38553 ft | 490 kts | 36° |
| 2026-05-08 23:27 | -18.89009 | -43.11389 | 38553 ft | 489 kts | 36° |
| 2026-05-08 23:28 | -18.83573 | -43.07090 | 38553 ft | 489 kts | 37° |
| 2026-05-08 23:28 | -18.78140 | -43.02792 | 38553 ft | 489 kts | 36° |
| 2026-05-08 23:29 | -18.72682 | -42.98486 | 38553 ft | 489 kts | 36° |
| 2026-05-08 23:29 | -18.67252 | -42.94203 | 38553 ft | 489 kts | 36° |
| 2026-05-08 23:30 | -18.61814 | -42.89913 | 38553 ft | 489 kts | 36° |
| 2026-05-08 23:30 | -18.56385 | -42.85626 | 38553 ft | 489 kts | 36° |
| 2026-05-08 23:31 | -18.50927 | -42.81337 | 38553 ft | 489 kts | 36° |
| 2026-05-08 23:31 | -18.45485 | -42.77068 | 38553 ft | 489 kts | 36° |
| 2026-05-08 23:32 | -18.40041 | -42.72802 | 38553 ft | 489 kts | 36° |
| 2026-05-08 23:32 | -18.34576 | -42.68521 | 38553 ft | 489 kts | 36° |
| 2026-05-08 23:33 | -18.29131 | -42.64260 | 38553 ft | 489 kts | 36° |
| 2026-05-08 23:33 | -18.23680 | -42.59997 | 38553 ft | 489 kts | 36° |
| 2026-05-08 23:34 | -18.18233 | -42.55739 | 38553 ft | 489 kts | 36° |
| 2026-05-08 23:34 | -18.12769 | -42.51470 | 38553 ft | 489 kts | 36° |
| 2026-05-08 23:35 | -18.07323 | -42.47219 | 38565 ft | 489 kts | 36° |
| 2026-05-08 23:35 | -18.01871 | -42.42965 | 38567 ft | 489 kts | 36° |
| 2026-05-08 23:36 | -17.96402 | -42.38700 | 38567 ft | 489 kts | 36° |
| 2026-05-08 23:36 | -17.90954 | -42.34455 | 38567 ft | 489 kts | 36° |
| 2026-05-08 23:37 | -17.85496 | -42.30203 | 38567 ft | 489 kts | 36° |
| 2026-05-08 23:37 | -17.80045 | -42.25959 | 38567 ft | 489 kts | 36° |
| 2026-05-08 23:38 | -17.74571 | -42.21698 | 38567 ft | 489 kts | 36° |
| 2026-05-08 23:38 | -17.69121 | -42.17459 | 38567 ft | 489 kts | 36° |
| 2026-05-08 23:39 | -17.63661 | -42.13212 | 38567 ft | 489 kts | 36° |
| 2026-05-08 23:39 | -17.58182 | -42.08951 | 38501 ft | 491 kts | 36° |
| 2026-05-08 23:40 | -17.52717 | -42.04699 | 38479 ft | 491 kts | 36° |
| 2026-05-08 23:40 | -17.47253 | -42.00447 | 38478 ft | 490 kts | 36° |
| 2026-05-08 23:41 | -17.41760 | -41.96194 | 38477 ft | 490 kts | 36° |
| 2026-05-08 23:41 | -17.36290 | -41.91964 | 38477 ft | 490 kts | 36° |
| 2026-05-08 23:42 | -17.30822 | -41.87739 | 38476 ft | 490 kts | 36° |
| 2026-05-08 23:42 | -17.25331 | -41.83497 | 38476 ft | 490 kts | 36° |
| 2026-05-08 23:43 | -17.19857 | -41.79271 | 38476 ft | 490 kts | 36° |
| 2026-05-08 23:43 | -17.14390 | -41.75053 | 38475 ft | 490 kts | 36° |
| 2026-05-08 23:44 | -17.08916 | -41.70831 | 38475 ft | 490 kts | 36° |
| 2026-05-08 23:44 | -17.03424 | -41.66598 | 38475 ft | 490 kts | 36° |
| 2026-05-08 23:45 | -16.97954 | -41.62383 | 38475 ft | 490 kts | 36° |
| 2026-05-08 23:45 | -16.92483 | -41.58169 | 38475 ft | 490 kts | 36° |
| 2026-05-08 23:46 | -16.86991 | -41.53939 | 38458 ft | 490 kts | 36° |
| 2026-05-08 23:46 | -16.81513 | -41.49721 | 38453 ft | 490 kts | 36° |
| 2026-05-08 23:47 | -16.76046 | -41.45510 | 38531 ft | 488 kts | 36° |
| 2026-05-08 23:47 | -16.70600 | -41.41309 | 38567 ft | 488 kts | 36° |
| 2026-05-08 23:48 | -16.65137 | -41.37078 | 38567 ft | 489 kts | 36° |
| 2026-05-08 23:48 | -16.59689 | -41.32860 | 38567 ft | 489 kts | 36° |
| 2026-05-08 23:49 | -16.54236 | -41.28640 | 38567 ft | 489 kts | 36° |
| 2026-05-08 23:49 | -16.48756 | -41.24402 | 38567 ft | 490 kts | 36° |
| 2026-05-08 23:50 | -16.43301 | -41.20186 | 38567 ft | 490 kts | 36° |
| 2026-05-08 23:50 | -16.37840 | -41.15968 | 38567 ft | 490 kts | 36° |
| 2026-05-08 23:51 | -16.32381 | -41.11753 | 38567 ft | 490 kts | 36° |
| 2026-05-08 23:51 | -16.26899 | -41.07524 | 38567 ft | 490 kts | 36° |
| 2026-05-08 23:52 | -16.21433 | -41.03310 | 38567 ft | 490 kts | 36° |
| 2026-05-08 23:52 | -16.15970 | -40.99100 | 38567 ft | 490 kts | 36° |
| 2026-05-08 23:53 | -16.10484 | -40.94875 | 38567 ft | 490 kts | 36° |
| 2026-05-08 23:53 | -16.05014 | -40.90665 | 38567 ft | 490 kts | 36° |
| 2026-05-08 23:54 | -15.99548 | -40.86461 | 38567 ft | 490 kts | 36° |
| 2026-05-08 23:55 | -15.91326 | -40.80140 | 38567 ft | 490 kts | 36° |
| 2026-05-08 23:55 | -15.85857 | -40.75938 | 38567 ft | 490 kts | 36° |
| 2026-05-08 23:56 | -15.80386 | -40.71737 | 38567 ft | 490 kts | 36° |
| 2026-05-08 23:56 | -15.74913 | -40.67536 | 38567 ft | 490 kts | 36° |
| 2026-05-08 23:57 | -15.69417 | -40.63321 | 38567 ft | 490 kts | 36° |
| 2026-05-08 23:57 | -15.63952 | -40.59130 | 38567 ft | 490 kts | 36° |
| 2026-05-08 23:58 | -15.58480 | -40.54936 | 38567 ft | 490 kts | 36° |
| 2026-05-08 23:58 | -15.52982 | -40.50722 | 38567 ft | 490 kts | 36° |
| 2026-05-08 23:59 | -15.47513 | -40.46532 | 38567 ft | 490 kts | 36° |
| 2026-05-08 23:59 | -15.42039 | -40.42340 | 38567 ft | 490 kts | 36° |
| 2026-05-09 00:00 | -15.36570 | -40.38150 | 38567 ft | 490 kts | 36° |
| 2026-05-09 00:00 | -15.31079 | -40.33940 | 38567 ft | 490 kts | 36° |
| 2026-05-09 00:01 | -15.25602 | -40.29760 | 38567 ft | 490 kts | 36° |
| 2026-05-09 00:01 | -15.20113 | -40.25584 | 38567 ft | 490 kts | 36° |
| 2026-05-09 00:02 | -15.14608 | -40.21398 | 38567 ft | 490 kts | 36° |
| 2026-05-09 00:02 | -15.09121 | -40.17228 | 38567 ft | 490 kts | 36° |
| 2026-05-09 00:03 | -15.03636 | -40.13062 | 38567 ft | 490 kts | 36° |
| 2026-05-09 00:03 | -14.98149 | -40.08896 | 38567 ft | 490 kts | 36° |
| 2026-05-09 00:04 | -14.92640 | -40.04716 | 38567 ft | 490 kts | 36° |
| 2026-05-09 00:04 | -14.87156 | -40.00557 | 38567 ft | 490 kts | 36° |
| 2026-05-09 00:05 | -14.81665 | -39.96395 | 38567 ft | 490 kts | 36° |
| 2026-05-09 00:05 | -14.76151 | -39.92216 | 38519 ft | 491 kts | 36° |
| 2026-05-09 00:06 | -14.70646 | -39.88046 | 38479 ft | 492 kts | 36° |
| 2026-05-09 00:06 | -14.65142 | -39.83879 | 38478 ft | 492 kts | 36° |
| 2026-05-09 00:07 | -14.59638 | -39.79712 | 38479 ft | 491 kts | 36° |
| 2026-05-09 00:07 | -14.54119 | -39.75536 | 38479 ft | 491 kts | 36° |
| 2026-05-09 00:08 | -14.48624 | -39.71379 | 38479 ft | 491 kts | 36° |
| 2026-05-09 00:08 | -14.43122 | -39.67216 | 38479 ft | 491 kts | 36° |
| 2026-05-09 00:09 | -14.37608 | -39.63044 | 38479 ft | 491 kts | 36° |
| 2026-05-09 00:09 | -14.32114 | -39.58890 | 38479 ft | 491 kts | 36° |
| 2026-05-09 00:10 | -14.26600 | -39.54756 | 38479 ft | 491 kts | 36° |
| 2026-05-09 00:10 | -14.21088 | -39.50630 | 38480 ft | 491 kts | 36° |
| 2026-05-09 00:11 | -14.15552 | -39.46488 | 38480 ft | 491 kts | 36° |
| 2026-05-09 00:11 | -14.10040 | -39.42366 | 38480 ft | 491 kts | 36° |
| 2026-05-09 00:12 | -14.04522 | -39.38241 | 38480 ft | 491 kts | 36° |
| 2026-05-09 00:12 | -13.98987 | -39.34106 | 38480 ft | 491 kts | 36° |
| 2026-05-09 00:13 | -13.93470 | -39.29985 | 38480 ft | 491 kts | 36° |
| 2026-05-09 00:13 | -13.87949 | -39.25862 | 38480 ft | 491 kts | 36° |
| 2026-05-09 00:14 | -13.82433 | -39.21745 | 38480 ft | 491 kts | 36° |
| 2026-05-09 00:14 | -13.76892 | -39.17609 | 38480 ft | 491 kts | 36° |
| 2026-05-09 00:15 | -13.71380 | -39.13495 | 38481 ft | 491 kts | 36° |
| 2026-05-09 00:15 | -13.65864 | -39.09378 | 38525 ft | 490 kts | 36° |
| 2026-05-09 00:16 | -13.60341 | -39.05255 | 38531 ft | 490 kts | 36° |
| 2026-05-09 00:16 | -13.54815 | -39.01162 | 38530 ft | 491 kts | 35° |
| 2026-05-09 00:17 | -13.49284 | -38.97073 | 38530 ft | 491 kts | 35° |
| 2026-05-09 00:17 | -13.43754 | -38.92987 | 38530 ft | 491 kts | 35° |
| 2026-05-09 00:18 | -13.38198 | -38.88884 | 38529 ft | 491 kts | 35° |
| 2026-05-09 00:18 | -13.32665 | -38.84799 | 38529 ft | 491 kts | 35° |
| 2026-05-09 00:19 | -13.27164 | -38.80741 | 38528 ft | 491 kts | 35° |
| 2026-05-09 00:19 | -13.21579 | -38.76622 | 38528 ft | 491 kts | 35° |
| 2026-05-09 00:20 | -13.16039 | -38.72539 | 38527 ft | 491 kts | 35° |
| 2026-05-09 00:20 | -13.10481 | -38.68444 | 38527 ft | 491 kts | 35° |
| 2026-05-09 00:21 | -13.04940 | -38.64364 | 38527 ft | 491 kts | 35° |
| 2026-05-09 00:21 | -12.99403 | -38.60288 | 38526 ft | 491 kts | 35° |
| 2026-05-09 00:22 | -12.93836 | -38.56192 | 38526 ft | 491 kts | 35° |
| 2026-05-09 00:22 | -12.88296 | -38.52117 | 38526 ft | 491 kts | 35° |
| 2026-05-09 00:23 | -12.82757 | -38.48045 | 38525 ft | 491 kts | 35° |
| 2026-05-09 00:23 | -12.77210 | -38.43969 | 38525 ft | 491 kts | 35° |
| 2026-05-09 00:24 | -12.71647 | -38.39882 | 38525 ft | 491 kts | 35° |
| 2026-05-09 00:24 | -12.66107 | -38.35813 | 38505 ft | 492 kts | 35° |
| 2026-05-09 00:25 | -12.60551 | -38.31734 | 38482 ft | 492 kts | 35° |
| 2026-05-09 00:25 | -12.54984 | -38.27649 | 38482 ft | 492 kts | 35° |
| 2026-05-09 00:26 | -12.49438 | -38.23579 | 38482 ft | 492 kts | 35° |
| 2026-05-09 00:26 | -12.43886 | -38.19506 | 38483 ft | 492 kts | 35° |
| 2026-05-09 00:27 | -12.38340 | -38.15436 | 38483 ft | 491 kts | 35° |
| 2026-05-09 00:27 | -12.32777 | -38.11354 | 38483 ft | 491 kts | 35° |
| 2026-05-09 00:28 | -12.27231 | -38.07290 | 38483 ft | 491 kts | 35° |
| 2026-05-09 00:28 | -12.21677 | -38.03238 | 38483 ft | 491 kts | 35° |
| 2026-05-09 00:29 | -12.16101 | -37.99172 | 38483 ft | 491 kts | 35° |
| 2026-05-09 00:29 | -12.10545 | -37.95121 | 38483 ft | 491 kts | 35° |
| 2026-05-09 00:30 | -12.04994 | -37.91075 | 38483 ft | 491 kts | 35° |
| 2026-05-09 00:30 | -11.99440 | -37.87026 | 38483 ft | 491 kts | 35° |
| 2026-05-09 00:31 | -11.93865 | -37.82961 | 38483 ft | 491 kts | 35° |
| 2026-05-09 00:31 | -11.88307 | -37.78912 | 38483 ft | 491 kts | 35° |
| 2026-05-09 00:32 | -11.82756 | -37.74891 | 38600 ft | 489 kts | 35° |
| 2026-05-09 00:32 | -11.77185 | -37.70858 | 38608 ft | 490 kts | 35° |
| 2026-05-09 00:33 | -11.71633 | -37.66841 | 38610 ft | 491 kts | 35° |
| 2026-05-09 00:33 | -11.66063 | -37.62812 | 38611 ft | 491 kts | 35° |
| 2026-05-09 00:34 | -11.60502 | -37.58792 | 38613 ft | 492 kts | 35° |
| 2026-05-09 00:34 | -11.54910 | -37.54751 | 38615 ft | 492 kts | 35° |
| 2026-05-09 00:35 | -11.49337 | -37.50725 | 38617 ft | 492 kts | 35° |
| 2026-05-09 00:35 | -11.43760 | -37.46697 | 38619 ft | 492 kts | 35° |
| 2026-05-09 00:36 | -11.38164 | -37.42657 | 38621 ft | 492 kts | 35° |
| 2026-05-09 00:36 | -11.32588 | -37.38632 | 38623 ft | 492 kts | 35° |
| 2026-05-09 00:37 | -11.27013 | -37.34609 | 38625 ft | 492 kts | 35° |
| 2026-05-09 00:37 | -11.21436 | -37.30585 | 38627 ft | 492 kts | 35° |
| 2026-05-09 00:38 | -11.15835 | -37.26544 | 38629 ft | 492 kts | 35° |
| 2026-05-09 00:38 | -11.10259 | -37.22521 | 38631 ft | 492 kts | 35° |
| 2026-05-09 00:39 | -11.04682 | -37.18496 | 38633 ft | 492 kts | 35° |
| 2026-05-09 00:39 | -10.99079 | -37.14464 | 38634 ft | 492 kts | 35° |
| 2026-05-09 00:40 | -10.93490 | -37.10460 | 38635 ft | 492 kts | 35° |
| 2026-05-09 00:40 | -10.87894 | -37.06455 | 38634 ft | 492 kts | 35° |
| 2026-05-09 00:41 | -10.79485 | -37.00439 | 38631 ft | 493 kts | 35° |
| 2026-05-09 00:41 | -10.73888 | -36.96437 | 38630 ft | 493 kts | 35° |
| 2026-05-09 00:42 | -10.68288 | -36.92433 | 38628 ft | 493 kts | 35° |
| 2026-05-09 00:42 | -10.62697 | -36.88437 | 38626 ft | 493 kts | 35° |
| 2026-05-09 00:43 | -10.57081 | -36.84425 | 38624 ft | 493 kts | 35° |
| 2026-05-09 00:43 | -10.51484 | -36.80427 | 38623 ft | 493 kts | 35° |
| 2026-05-09 00:44 | -10.45887 | -36.76431 | 38621 ft | 493 kts | 35° |
| 2026-05-09 00:44 | -10.40269 | -36.72419 | 38620 ft | 493 kts | 35° |
| 2026-05-09 00:45 | -10.34670 | -36.68423 | 38618 ft | 493 kts | 35° |
| 2026-05-09 00:45 | -10.29072 | -36.64427 | 38617 ft | 493 kts | 35° |
| 2026-05-09 00:46 | -10.23474 | -36.60431 | 38615 ft | 493 kts | 35° |
| 2026-05-09 00:46 | -10.17858 | -36.56420 | 38614 ft | 493 kts | 35° |
| 2026-05-09 00:47 | -10.12255 | -36.52440 | 38557 ft | 494 kts | 34° |
| 2026-05-09 00:47 | -10.09437 | -36.50443 | 38446 ft | 496 kts | 34° |
| 2026-05-09 00:47 | -10.06606 | -36.48439 | 38412 ft | 496 kts | 34° |
| 2026-05-09 00:48 | -10.00948 | -36.44434 | 38395 ft | 495 kts | 34° |
| 2026-05-09 00:48 | -9.95306 | -36.40441 | 38382 ft | 495 kts | 34° |
| 2026-05-09 00:49 | -9.89678 | -36.36461 | 38368 ft | 494 kts | 34° |
| 2026-05-09 00:49 | -9.84046 | -36.32478 | 38354 ft | 494 kts | 34° |
| 2026-05-09 00:50 | -9.78402 | -36.28489 | 38341 ft | 494 kts | 34° |
| 2026-05-09 00:50 | -9.72784 | -36.24518 | 38327 ft | 494 kts | 34° |
| 2026-05-09 00:51 | -9.67154 | -36.20541 | 38314 ft | 493 kts | 34° |
| 2026-05-09 00:51 | -9.61514 | -36.16558 | 38301 ft | 493 kts | 34° |
| 2026-05-09 00:52 | -9.55894 | -36.12590 | 38289 ft | 493 kts | 34° |
| 2026-05-09 00:52 | -9.50271 | -36.08622 | 38278 ft | 493 kts | 34° |
| 2026-05-09 00:53 | -9.44661 | -36.04663 | 38270 ft | 493 kts | 34° |
| 2026-05-09 00:53 | -9.39017 | -36.00682 | 38264 ft | 493 kts | 34° |
| 2026-05-09 00:54 | -9.33404 | -35.96723 | 38263 ft | 493 kts | 34° |
| 2026-05-09 00:54 | -9.27783 | -35.92759 | 38265 ft | 493 kts | 34° |
| 2026-05-09 00:55 | -9.22157 | -35.88793 | 38270 ft | 492 kts | 34° |
| 2026-05-09 00:55 | -9.16539 | -35.84832 | 38276 ft | 492 kts | 34° |
| 2026-05-09 00:56 | -9.10936 | -35.80881 | 38235 ft | 493 kts | 34° |
| 2026-05-09 00:56 | -9.05275 | -35.76960 | 38224 ft | 493 kts | 30° |
| 2026-05-09 00:57 | -8.98988 | -35.74208 | 38230 ft | 492 kts | 18° |
| 2026-05-09 00:57 | -8.92466 | -35.72108 | 38232 ft | 492 kts | 17° |
| 2026-05-09 00:58 | -8.85929 | -35.70054 | 38234 ft | 492 kts | 17° |
| 2026-05-09 00:58 | -8.79409 | -35.68009 | 38235 ft | 486 kts | 17° |
| 2026-05-09 00:59 | -8.72991 | -35.65997 | 38203 ft | 481 kts | 17° |
| 2026-05-09 00:59 | -8.69757 | -35.64983 | 37649 ft | 491 kts | 17° |
| 2026-05-09 00:59 | -8.66480 | -35.63956 | 37034 ft | 497 kts | 17° |
| 2026-05-09 01:00 | -8.63179 | -35.62921 | 36412 ft | 493 kts | 17° |
| 2026-05-09 01:00 | -8.59932 | -35.61904 | 35792 ft | 487 kts | 17° |
| 2026-05-09 01:00 | -8.56690 | -35.60887 | 35164 ft | 482 kts | 17° |
| 2026-05-09 01:00 | -8.53507 | -35.59890 | 34542 ft | 477 kts | 17° |
| 2026-05-09 01:01 | -8.50350 | -35.58901 | 33919 ft | 473 kts | 17° |
| 2026-05-09 01:01 | -8.47787 | -35.58098 | 33410 ft | 469 kts | 17° |
| 2026-05-09 01:01 | -8.44687 | -35.57127 | 32787 ft | 465 kts | 17° |
| 2026-05-09 01:01 | -8.41058 | -35.55991 | 32051 ft | 459 kts | 17° |
| 2026-05-09 01:02 | -8.38021 | -35.55039 | 31429 ft | 455 kts | 17° |
| 2026-05-09 01:02 | -8.34982 | -35.54088 | 30800 ft | 451 kts | 17° |
| 2026-05-09 01:02 | -8.32008 | -35.53157 | 30178 ft | 446 kts | 17° |
| 2026-05-09 01:02 | -8.29060 | -35.52234 | 29556 ft | 442 kts | 17° |
| 2026-05-09 01:03 | -8.26127 | -35.51317 | 28932 ft | 438 kts | 17° |
| 2026-05-09 01:03 | -8.23231 | -35.50410 | 28309 ft | 434 kts | 17° |
| 2026-05-09 01:03 | -8.20368 | -35.49514 | 27688 ft | 430 kts | 17° |
| 2026-05-09 01:03 | -8.17519 | -35.48623 | 27064 ft | 426 kts | 17° |
| 2026-05-09 01:04 | -8.14685 | -35.47737 | 26437 ft | 422 kts | 17° |
| 2026-05-09 01:04 | -8.11890 | -35.46862 | 25812 ft | 418 kts | 17° |
| 2026-05-09 01:04 | -8.09136 | -35.46001 | 25192 ft | 414 kts | 17° |
| 2026-05-09 01:04 | -8.06393 | -35.45143 | 24567 ft | 410 kts | 17° |
| 2026-05-09 01:05 | -8.03683 | -35.44296 | 23945 ft | 406 kts | 17° |
| 2026-05-09 01:05 | -8.00997 | -35.43456 | 23322 ft | 402 kts | 17° |
| 2026-05-09 01:05 | -7.95676 | -35.41793 | 22071 ft | 395 kts | 17° |
| 2026-05-09 01:06 | -7.93071 | -35.40979 | 21450 ft | 391 kts | 17° |
| 2026-05-09 01:06 | -7.90481 | -35.40169 | 20826 ft | 388 kts | 17° |
| 2026-05-09 01:06 | -7.87917 | -35.39368 | 20203 ft | 384 kts | 17° |
| 2026-05-09 01:06 | -7.85370 | -35.38572 | 19579 ft | 380 kts | 17° |
| 2026-05-09 01:07 | -7.82862 | -35.37789 | 18958 ft | 377 kts | 17° |
| 2026-05-09 01:07 | -7.80367 | -35.37009 | 18335 ft | 374 kts | 17° |
| 2026-05-09 01:07 | -7.77873 | -35.36230 | 17706 ft | 370 kts | 17° |
| 2026-05-09 01:07 | -7.75424 | -35.35465 | 17083 ft | 367 kts | 17° |
| 2026-05-09 01:08 | -7.72998 | -35.34708 | 16461 ft | 363 kts | 17° |
| 2026-05-09 01:08 | -7.70595 | -35.33957 | 15838 ft | 360 kts | 17° |
| 2026-05-09 01:08 | -7.68210 | -35.33213 | 15215 ft | 357 kts | 17° |
| 2026-05-09 01:08 | -7.65849 | -35.32475 | 14592 ft | 354 kts | 17° |
| 2026-05-09 01:09 | -7.63503 | -35.31743 | 13968 ft | 350 kts | 17° |
| 2026-05-09 01:09 | -7.61170 | -35.31015 | 13341 ft | 348 kts | 17° |
| 2026-05-09 01:09 | -7.58875 | -35.30298 | 12811 ft | 340 kts | 17° |
| 2026-05-09 01:09 | -7.56690 | -35.29616 | 12751 ft | 318 kts | 17° |
| 2026-05-09 01:10 | -7.54641 | -35.28976 | 12691 ft | 298 kts | 17° |
| 2026-05-09 01:10 | -7.52690 | -35.28368 | 12367 ft | 290 kts | 17° |
| 2026-05-09 01:10 | -7.50769 | -35.27768 | 11896 ft | 287 kts | 17° |
| 2026-05-09 01:10 | -7.48868 | -35.27175 | 11404 ft | 285 kts | 17° |
| 2026-05-09 01:11 | -7.46963 | -35.26581 | 10906 ft | 283 kts | 17° |
| 2026-05-09 01:11 | -7.45085 | -35.25995 | 10410 ft | 281 kts | 17° |
| 2026-05-09 01:11 | -7.43219 | -35.25413 | 9911 ft | 279 kts | 17° |
| 2026-05-09 01:11 | -7.41368 | -35.24835 | 9410 ft | 277 kts | 17° |
| 2026-05-09 01:12 | -7.39531 | -35.24262 | 8907 ft | 275 kts | 17° |
| 2026-05-09 01:12 | -7.37706 | -35.23693 | 8403 ft | 273 kts | 17° |
| 2026-05-09 01:12 | -7.35892 | -35.23127 | 7902 ft | 271 kts | 17° |
| 2026-05-09 01:12 | -7.34079 | -35.22562 | 7399 ft | 270 kts | 17° |
| 2026-05-09 01:13 | -7.32295 | -35.22005 | 6905 ft | 268 kts | 17° |
| 2026-05-09 01:13 | -7.30518 | -35.21451 | 6412 ft | 266 kts | 17° |
| 2026-05-09 01:13 | -7.28757 | -35.20902 | 5922 ft | 264 kts | 17° |
| 2026-05-09 01:13 | -7.27005 | -35.20356 | 5434 ft | 262 kts | 17° |
| 2026-05-09 01:14 | -7.25285 | -35.19819 | 5183 ft | 250 kts | 17° |
| 2026-05-09 01:14 | -7.23730 | -35.19334 | 5175 ft | 219 kts | 17° |
| 2026-05-09 01:14 | -7.22344 | -35.18901 | 5080 ft | 197 kts | 17° |
| 2026-05-09 01:14 | -7.21064 | -35.18502 | 4759 ft | 190 kts | 17° |
| 2026-05-09 01:15 | -7.19810 | -35.18111 | 4361 ft | 188 kts | 17° |
| 2026-05-09 01:15 | -7.18562 | -35.17722 | 3951 ft | 187 kts | 17° |
| 2026-05-09 01:15 | -7.17324 | -35.17336 | 3542 ft | 186 kts | 17° |
| 2026-05-09 01:15 | -7.16097 | -35.16953 | 3252 ft | 184 kts | 17° |
| 2026-05-09 01:16 | -7.14865 | -35.16569 | 3204 ft | 186 kts | 17° |
| 2026-05-09 01:16 | -7.13612 | -35.16179 | 3199 ft | 187 kts | 17° |
| 2026-05-09 01:16 | -7.12369 | -35.15792 | 3198 ft | 187 kts | 17° |
| 2026-05-09 01:17 | -7.09883 | -35.15016 | 3198 ft | 187 kts | 17° |
| 2026-05-09 01:17 | -7.08764 | -35.14411 | 2956 ft | 183 kts | 41° |
| 2026-05-09 01:17 | -7.07857 | -35.13513 | 2528 ft | 184 kts | 44° |
| 2026-05-09 01:17 | -7.06963 | -35.12597 | 2158 ft | 182 kts | 44° |
| 2026-05-09 01:18 | -7.06038 | -35.11651 | 2064 ft | 193 kts | 46° |
| 2026-05-09 01:18 | -7.05094 | -35.10684 | 2056 ft | 194 kts | 46° |
| 2026-05-09 01:18 | -7.04149 | -35.09715 | 2054 ft | 194 kts | 46° |
| 2026-05-09 01:18 | -7.03212 | -35.08742 | 2047 ft | 193 kts | 50° |
| 2026-05-09 01:19 | -7.02757 | -35.07594 | 1981 ft | 165 kts | 92° |
| 2026-05-09 01:19 | -7.03161 | -35.06636 | 1948 ft | 146 kts | 135° |
| 2026-05-09 01:19 | -7.03879 | -35.05916 | 1951 ft | 145 kts | 137° |
| 2026-05-09 01:19 | -7.04607 | -35.05201 | 1951 ft | 145 kts | 137° |
| 2026-05-09 01:20 | -7.05308 | -35.04513 | 1942 ft | 139 kts | 137° |
| 2026-05-09 01:20 | -7.06005 | -35.03830 | 1952 ft | 140 kts | 137° |
| 2026-05-09 01:20 | -7.06703 | -35.03146 | 1951 ft | 140 kts | 137° |
| 2026-05-09 01:20 | -7.07381 | -35.02481 | 1704 ft | 136 kts | 137° |
| 2026-05-09 01:21 | -7.08059 | -35.01817 | 1372 ft | 136 kts | 137° |
| 2026-05-09 01:21 | -7.08750 | -35.01132 | 1247 ft | 143 kts | 137° |
| 2026-05-09 01:21 | -7.09464 | -35.00422 | 1227 ft | 142 kts | 137° |
| 2026-05-09 01:21 | -7.10158 | -34.99732 | 1220 ft | 141 kts | 137° |
| 2026-05-09 01:22 | -7.10854 | -34.99038 | 1127 ft | 140 kts | 137° |
| 2026-05-09 01:22 | -7.11541 | -34.98351 | 929 ft | 141 kts | 137° |
| 2026-05-09 01:22 | -7.12232 | -34.97660 | 729 ft | 140 kts | 137° |
| 2026-05-09 01:22 | -7.12922 | -34.96969 | 531 ft | 141 kts | 137° |
| 2026-05-09 01:23 | -7.13613 | -34.96280 | 335 ft | 139 kts | 137° |
| 2026-05-09 01:23 | -7.14270 | -34.95626 | 218 ft | 125 kts | 137° |
| 2026-05-09 01:23 | -7.14809 | -34.95112 | 224 ft | 84 kts | 136° |
| 2026-05-09 01:23 | -7.14984 | -34.94937 | 224 ft | 18 kts | 136° |
| 2026-05-09 01:24 | -7.15078 | -34.94894 | 224 ft | 12 kts | 144° |
| 2026-05-09 01:24 | -7.15061 | -34.94862 | 224 ft | 6 kts | 349° |
| 2026-05-09 01:24 | -7.15035 | -34.94887 | 224 ft | 5 kts | 302° |
| 2026-05-09 01:24 | -7.15022 | -34.94905 | 224 ft | 6 kts | 313° |
| 2026-05-09 01:25 | -7.14995 | -34.94931 | 224 ft | 12 kts | 316° |
| 2026-05-09 01:26 | -7.14992 | -34.94934 | 224 ft | 13 kts | 316° |
| 2026-05-09 01:26 | -7.14900 | -34.95024 | 224 ft | 24 kts | 315° |
| 2026-05-09 01:26 | -7.14776 | -34.95061 | 224 ft | 16 kts | 41° |
| 2026-05-09 01:26 | -7.14715 | -34.95001 | 224 ft | 8 kts | 25° |
| 2026-05-09 01:27 | -7.14670 | -34.95017 | 224 ft | 7 kts | 315° |
| 2026-05-09 01:27 | -7.14633 | -34.95053 | 224 ft | 7 kts | 321° |
| 2026-05-09 01:27 | -7.14591 | -34.95059 | 223 ft | 6 kts | 28° |
| 2026-05-09 01:27 | -7.14565 | -34.95031 | 223 ft | 5 kts | 52° |
| 2026-05-09 01:28 | -7.14554 | -34.95002 | 223 ft | 4 kts | 120° |
| 2026-05-09 01:28 | -7.14571 | -34.94983 | 223 ft | 0 kts | 134° |